Time;durP1;ratioP1;P1;durP2;ratioP2;P2;SDS_P1;SDS_P2;PMS_P1;PMS_P2;Temp;Humidity;BMP_temperature;BMP_pressure;BME280_temperature;BME280_humidity;BME280_pressure;Samples;Min_cycle;Max_cycle;Signal;HPM_P1;HPM_P2
2023/10/19 00:22:25;;;;;;;18.02;13.50;;;11.10;99.90;;;;;;10398273;23;20137;-94
2023/10/19 01:04:31;;;;;;;21.92;17.92;;;11.80;99.90;;;;;;11073483;23;20051;-93
2023/10/19 02:29:28;;;;;;;17.88;12.90;;;13.10;99.90;;;;;;21585115;23;20050;-95
2023/10/19 03:33:18;;;;;;;17.42;11.52;;;14.00;99.90;;;;;;20098971;29;20077;-44
2023/10/19 03:53:30;;;;;;;10.98;7.50;;;14.10;99.90;;;;;;20877121;23;20527;-43
2023/10/19 04:03:31;;;;;;;9.93;6.30;;;14.10;99.90;;;;;;21082718;23;20618;-44
2023/10/19 04:13:31;;;;;;;8.25;4.40;;;14.20;99.90;;;;;;20235475;29;20930;-43
2023/10/19 04:23:34;;;;;;;7.90;3.67;;;14.10;99.90;;;;;;20244801;29;20221;-43
2023/10/19 04:43:49;;;;;;;6.05;2.80;;;14.00;99.90;;;;;;21566770;23;20150;-44
2023/10/19 05:04:12;;;;;;;8.98;2.03;;;14.00;99.90;;;;;;22425880;23;20048;-85
2023/10/19 05:14:14;;;;;;;5.60;1.80;;;14.10;99.90;;;;;;20476666;23;20059;-82
2023/10/19 05:24:18;;;;;;;5.82;1.48;;;14.00;99.90;;;;;;22023604;23;20056;-83
2023/10/19 05:54:32;;;;;;;9.15;1.70;;;14.10;99.90;;;;;;20624510;23;20557;-43
2023/10/19 06:04:33;;;;;;;5.82;1.70;;;14.20;99.90;;;;;;20327416;29;20102;-43
2023/10/19 06:14:33;;;;;;;8.82;1.80;;;14.10;99.90;;;;;;20331078;29;20043;-43
2023/10/19 06:24:34;;;;;;;5.00;1.43;;;14.10;99.90;;;;;;20350642;28;20224;-43
2023/10/19 06:34:35;;;;;;;6.88;1.83;;;14.20;99.90;;;;;;20338511;28;20555;-43
2023/10/19 06:44:36;;;;;;;6.35;1.88;;;14.20;99.90;;;;;;20573959;23;20357;-43
2023/10/19 06:54:37;;;;;;;6.50;1.90;;;14.10;99.90;;;;;;20242637;29;20075;-42
2023/10/19 07:04:38;;;;;;;7.20;1.73;;;14.10;99.90;;;;;;20232051;29;20072;-42
2023/10/19 07:14:40;;;;;;;4.45;1.80;;;14.20;99.90;;;;;;20227420;29;20288;-42
2023/10/19 07:24:41;;;;;;;7.28;2.03;;;14.30;99.90;;;;;;20229789;29;20064;-43
2023/10/19 07:34:44;;;;;;;8.17;2.03;;;14.20;99.90;;;;;;20227518;29;20054;-42
2023/10/19 07:44:44;;;;;;;7.80;2.05;;;14.40;99.90;;;;;;20227363;29;20556;-43
2023/10/19 07:54:45;;;;;;;6.15;2.40;;;14.50;99.90;;;;;;20218577;29;20159;-43
2023/10/19 08:04:45;;;;;;;6.80;2.10;;;14.30;99.90;;;;;;20213431;29;20052;-43
2023/10/19 08:14:46;;;;;;;7.47;2.00;;;14.40;99.90;;;;;;20227810;29;20559;-43
2023/10/19 08:24:47;;;;;;;7.22;2.83;;;14.50;99.90;;;;;;20223736;29;20072;-43
2023/10/19 08:34:49;;;;;;;7.85;2.42;;;14.60;99.90;;;;;;20471795;23;20345;-40
2023/10/19 08:44:49;;;;;;;7.25;2.67;;;14.70;99.90;;;;;;20142244;29;20333;-41
2023/10/19 08:54:50;;;;;;;8.30;2.97;;;14.70;99.90;;;;;;20148791;29;20268;-41
2023/10/19 09:04:51;;;;;;;9.93;2.63;;;15.00;99.90;;;;;;20152407;29;20433;-41
2023/10/19 09:14:53;;;;;;;7.78;2.58;;;15.40;99.90;;;;;;20146590;29;20386;-41
2023/10/19 09:24:53;;;;;;;11.07;3.00;;;15.60;99.90;;;;;;20153615;29;20595;-41
2023/10/19 09:34:55;;;;;;;11.18;3.30;;;15.90;99.90;;;;;;20141766;29;20495;-41
2023/10/19 09:45:05;;;;;;;12.10;2.60;;;16.40;99.90;;;;;;20149721;29;20163;-41
2023/10/19 09:55:31;;;;;;;11.27;2.75;;;16.70;99.90;;;;;;20152809;29;20037;-41
2023/10/19 10:05:43;;;;;;;7.30;2.60;;;16.60;99.90;;;;;;20173383;29;20307;-40
2023/10/19 10:15:48;;;;;;;9.45;2.15;;;16.50;99.90;;;;;;20175667;29;20112;-41
2023/10/19 10:25:50;;;;;;;9.10;2.35;;;16.80;81.70;;;;;;20547823;23;20044;-43
2023/10/19 10:35:55;;;;;;;10.07;2.55;;;16.70;86.60;;;;;;20234376;29;20140;-43
2023/10/19 10:46:07;;;;;;;10.88;2.10;;;16.60;86.20;;;;;;20235091;29;20040;-42
2023/10/19 10:56:07;;;;;;;11.02;3.03;;;16.60;93.70;;;;;;20234447;29;20244;-42
2023/10/19 11:06:11;;;;;;;12.45;2.88;;;16.70;99.90;;;;;;20234686;29;20060;-43
2023/10/19 11:16:22;;;;;;;9.57;2.30;;;17.20;98.20;;;;;;20246125;29;20334;-43
2023/10/19 11:26:24;;;;;;;9.30;2.45;;;17.90;25.30;;;;;;20226771;29;20052;-42
2023/10/19 11:36:25;;;;;;;8.75;2.10;;;17.80;13.40;;;;;;20233689;29;20230;-42
2023/10/19 11:46:27;;;;;;;10.82;2.28;;;17.70;9.10;;;;;;20231686;29;20542;-43
2023/10/19 11:56:27;;;;;;;12.63;2.30;;;17.70;30.20;;;;;;20233732;29;20528;-43
2023/10/19 12:06:28;;;;;;;11.07;2.30;;;18.20;19.40;;;;;;20230969;29;20494;-43
2023/10/19 12:16:29;;;;;;;10.65;2.05;;;18.60;1.00;;;;;;20228890;29;20055;-43
2023/10/19 12:26:30;;;;;;;11.13;1.95;;;18.20;1.00;;;;;;20225901;29;20519;-42
2023/10/19 12:36:34;;;;;;;12.10;2.35;;;18.00;1.00;;;;;;20847984;23;20448;-41
2023/10/19 12:46:38;;;;;;;9.50;2.33;;;17.80;6.40;;;;;;20316138;28;20134;-41
2023/10/19 12:56:39;;;;;;;10.35;2.40;;;17.70;13.70;;;;;;20444548;23;20107;-43
2023/10/19 13:06:40;;;;;;;14.50;3.13;;;17.60;15.90;;;;;;20232816;29;20047;-43
2023/10/19 13:16:40;;;;;;;8.55;1.90;;;17.50;15.40;;;;;;20221617;29;20060;-43
2023/10/19 13:26:45;;;;;;;13.40;2.90;;;17.40;24.40;;;;;;20225274;29;20517;-43
2023/10/19 13:36:46;;;;;;;13.82;2.30;;;17.40;28.90;;;;;;20588173;23;20500;-42
2023/10/19 13:46:50;;;;;;;5.50;2.10;;;17.30;41.30;;;;;;20238990;29;20054;-43
2023/10/19 13:56:55;;;;;;;10.63;2.80;;;17.10;71.60;;;;;;21787232;23;20115;-86
2023/10/19 14:07:33;;;;;;;10.93;3.22;;;17.00;99.90;;;;;;20424430;29;20044;-86
2023/10/19 14:29:18;;;;;;;12.95;4.07;;;17.10;99.90;;;;;;20126303;29;20026;-89
2023/10/19 14:39:40;;;;;;;12.15;4.05;;;16.90;99.90;;;;;;20147779;29;20061;-88
2023/10/19 15:01:32;;;;;;;9.98;3.15;;;16.60;99.90;;;;;;20157621;29;20054;-86
2023/10/19 15:12:13;;;;;;;12.52;3.15;;;16.30;99.90;;;;;;20078411;29;20058;-86
2023/10/19 15:22:21;;;;;;;14.82;3.40;;;16.30;99.90;;;;;;20281317;29;20034;-89
2023/10/19 15:32:25;;;;;;;8.18;3.00;;;16.30;99.90;;;;;;20314797;23;20059;-41
2023/10/19 15:42:25;;;;;;;12.48;4.00;;;16.40;99.90;;;;;;20327424;29;20082;-41
2023/10/19 15:52:28;;;;;;;8.90;3.27;;;16.60;99.90;;;;;;20619049;23;20044;-84
2023/10/19 16:02:29;;;;;;;13.18;3.75;;;16.70;99.90;;;;;;20705668;23;20472;-43
2023/10/19 16:12:30;;;;;;;12.50;3.75;;;16.50;99.90;;;;;;20811064;23;20052;-84
2023/10/19 16:22:31;;;;;;;8.35;3.22;;;16.40;99.90;;;;;;20546757;23;20103;-85
2023/10/19 16:43:50;;;;;;;9.38;4.20;;;16.10;99.90;;;;;;20322220;28;20445;-85
2023/10/19 17:04:02;;;;;;;11.25;4.22;;;16.00;99.90;;;;;;21528926;23;20056;-94
2023/10/19 17:14:07;;;;;;;10.95;5.10;;;16.10;99.90;;;;;;20291775;29;20126;-96
2023/10/19 17:24:08;;;;;;;9.18;3.80;;;16.10;99.90;;;;;;20290790;29;20120;-95
2023/10/19 17:34:09;;;;;;;11.15;4.10;;;16.00;99.90;;;;;;20315484;29;20059;-94
2023/10/19 17:44:17;;;;;;;11.65;4.72;;;16.00;99.90;;;;;;20321808;29;20032;-94
2023/10/19 17:54:19;;;;;;;12.75;6.75;;;16.00;99.90;;;;;;20325099;29;20036;-95
2023/10/19 18:04:21;;;;;;;14.50;7.57;;;15.90;99.90;;;;;;20325983;29;20443;-95
2023/10/19 18:14:22;;;;;;;11.27;6.13;;;15.90;99.90;;;;;;20262698;29;20092;-94
2023/10/19 18:24:22;;;;;;;15.25;5.88;;;15.80;99.90;;;;;;20127362;23;20057;-40
2023/10/19 18:34:25;;;;;;;13.07;6.75;;;15.70;99.90;;;;;;20103923;29;20421;-40
2023/10/19 18:44:26;;;;;;;13.55;6.53;;;15.60;99.90;;;;;;20107074;29;20463;-40
2023/10/19 18:54:26;;;;;;;17.25;6.85;;;15.50;99.90;;;;;;20053011;29;20488;-40
2023/10/19 19:04:27;;;;;;;13.38;7.00;;;15.40;99.90;;;;;;20088980;29;20049;-40
2023/10/19 19:14:27;;;;;;;17.85;9.10;;;15.40;99.90;;;;;;20094120;29;20117;-40
2023/10/19 19:24:28;;;;;;;13.82;8.75;;;15.30;99.90;;;;;;20096132;29;20675;-41
2023/10/19 19:34:28;;;;;;;13.35;7.05;;;15.30;99.90;;;;;;20095809;29;20283;-40
2023/10/19 19:44:29;;;;;;;15.20;7.90;;;15.30;99.90;;;;;;20090183;29;20053;-40
2023/10/19 19:54:29;;;;;;;15.55;8.07;;;15.20;99.90;;;;;;20091020;29;20296;-40
2023/10/19 20:04:30;;;;;;;16.47;9.27;;;15.20;99.90;;;;;;20085060;29;20403;-41
2023/10/19 20:14:32;;;;;;;17.70;11.05;;;15.10;99.90;;;;;;20080215;29;20686;-40
2023/10/19 20:24:32;;;;;;;20.45;11.00;;;15.10;99.90;;;;;;20088339;29;20077;-40
2023/10/19 20:34:33;;;;;;;19.83;12.45;;;15.10;99.90;;;;;;20084252;29;20052;-40
2023/10/19 20:44:42;;;;;;;23.20;13.88;;;15.10;99.90;;;;;;20084203;29;20565;-40
2023/10/19 20:54:43;;;;;;;22.73;13.57;;;15.10;99.90;;;;;;20072877;29;20131;-40
2023/10/19 21:04:44;;;;;;;20.27;12.40;;;15.10;99.90;;;;;;20094798;29;20328;-40
2023/10/19 21:14:44;;;;;;;25.48;14.13;;;15.00;99.90;;;;;;20097918;29;20547;-40
2023/10/19 21:24:45;;;;;;;21.13;12.65;;;15.00;99.90;;;;;;20098692;29;20057;-40
2023/10/19 21:34:45;;;;;;;20.27;12.38;;;15.00;99.90;;;;;;20101347;29;20057;-40
2023/10/19 21:44:46;;;;;;;24.20;14.55;;;15.00;99.90;;;;;;20102462;29;20046;-40
2023/10/19 21:54:48;;;;;;;23.05;17.08;;;15.00;99.90;;;;;;20109504;29;20105;-40
2023/10/19 22:04:48;;;;;;;28.15;17.77;;;15.10;99.90;;;;;;20108874;29;20495;-41
2023/10/19 22:14:51;;;;;;;27.60;18.48;;;15.10;99.90;;;;;;20104415;29;20057;-40
2023/10/19 22:24:51;;;;;;;27.27;19.77;;;15.00;99.90;;;;;;20090839;29;20054;-40
2023/10/19 22:34:52;;;;;;;32.53;21.42;;;15.10;99.90;;;;;;20097041;29;20403;-40
2023/10/19 22:44:53;;;;;;;29.65;21.27;;;15.10;99.90;;;;;;20095761;29;20507;-40
2023/10/19 22:54:54;;;;;;;30.20;21.77;;;15.10;99.90;;;;;;20093519;29;20525;-40
2023/10/19 23:04:54;;;;;;;32.25;22.38;;;15.20;99.90;;;;;;20097717;29;20059;-41
2023/10/19 23:14:57;;;;;;;30.15;22.92;;;15.10;99.90;;;;;;20093576;29;20045;-40
2023/10/19 23:24:58;;;;;;;31.15;22.77;;;15.10;99.90;;;;;;20086151;29;20115;-40
2023/10/19 23:34:58;;;;;;;32.45;23.67;;;15.20;99.90;;;;;;20092721;29;20167;-40
2023/10/19 23:44:59;;;;;;;30.00;22.50;;;15.10;99.90;;;;;;20086267;29;20642;-40
2023/10/19 23:55:00;;;;;;;32.08;23.95;;;15.20;99.90;;;;;;20086527;29;20088;-40
